Aviation Digital Data Service (ADDS)

Output produced by METARs form (0210 UTC 11 December 2016)
found at http://aviationweather.gov/adds/metars/
 
KACY 102336Z 1100/1124 27005KT P6SM SCT060 
     FM111000 VRB02KT P6SM BKN100 
     FM111500 18005KT P6SM OVC070 
     PROB30 1122/1123 6SM -SN OVC060